createdAt,value
2023-05-17T00:00:33.786Z,17.6519
2023-05-17T00:01:35.525Z,17.6324
2023-05-17T00:02:37.027Z,17.6402
2023-05-17T00:03:38.711Z,17.6650
2023-05-17T00:04:40.355Z,17.6771
2023-05-17T00:05:42.100Z,17.6732
2023-05-17T00:06:43.731Z,17.6714
2023-05-17T00:07:45.334Z,17.6420
2023-05-17T00:08:46.972Z,17.6521
2023-05-17T00:09:48.654Z,17.6422
2023-05-17T00:10:50.290Z,17.6673
2023-05-17T00:11:51.898Z,17.6747
2023-05-17T00:12:53.518Z,17.7034
2023-05-17T00:13:55.182Z,17.7006
2023-05-17T00:14:56.876Z,17.6977
2023-05-17T00:15:58.550Z,17.6527
2023-05-17T00:17:00.181Z,17.6484
2023-05-17T00:18:01.914Z,17.6726
2023-05-17T00:19:03.518Z,17.6706
2023-05-17T00:20:05.034Z,17.6476
2023-05-17T00:21:06.778Z,17.6387
2023-05-17T00:22:08.424Z,17.6445
2023-05-17T00:23:09.983Z,17.6858
2023-05-17T00:24:11.683Z,17.6868
2023-05-17T00:25:13.290Z,17.7207
2023-05-17T00:26:14.918Z,17.7077
2023-05-17T00:27:16.614Z,17.6843
2023-05-17T00:28:18.230Z,17.6911
2023-05-17T00:29:19.913Z,17.6455
2023-05-17T00:30:21.499Z,17.6636
2023-05-17T00:31:23.192Z,17.6346
2023-05-17T00:32:24.891Z,17.6356
2023-05-17T00:33:26.529Z,17.6453
2023-05-17T00:34:28.174Z,17.6486
2023-05-17T00:35:29.965Z,17.6562
2023-05-17T00:36:31.461Z,17.6488
2023-05-17T00:37:33.069Z,17.6246
2023-05-17T00:38:34.678Z,17.6531
2023-05-17T00:39:36.262Z,17.6605
2023-05-17T00:40:37.864Z,17.6815
2023-05-17T00:41:39.615Z,17.6825
2023-05-17T00:42:41.259Z,17.6250
2023-05-17T00:43:42.820Z,17.6332
2023-05-17T00:44:44.497Z,17.6344
2023-05-17T00:45:46.113Z,17.6519
2023-05-17T00:46:47.834Z,17.6050
2023-05-17T00:47:49.655Z,17.6352
2023-05-17T00:48:51.133Z,17.6211
2023-05-17T00:49:53.603Z,17.6400
2023-05-17T00:50:54.339Z,17.6149
2023-05-17T00:51:56.021Z,17.6005
2023-05-17T00:52:57.672Z,17.6028
2023-05-17T00:53:59.272Z,17.6260
2023-05-17T00:55:00.937Z,17.6147
2023-05-17T00:56:02.548Z,17.5545
2023-05-17T00:57:04.603Z,17.5767
2023-05-17T00:58:06.628Z,17.6015
2023-05-17T00:59:07.532Z,17.5471
2023-05-17T01:00:09.158Z,17.5839
2023-05-17T01:01:10.806Z,17.6128
2023-05-17T01:02:12.541Z,17.5968
2023-05-17T01:03:14.200Z,17.6227
2023-05-17T01:04:15.917Z,17.5843
2023-05-17T01:05:17.418Z,17.6098
2023-05-17T01:06:19.054Z,17.6272
2023-05-17T01:07:20.777Z,17.6459
2023-05-17T01:08:23.146Z,17.6609
2023-05-17T01:09:23.974Z,17.6465
2023-05-17T01:10:25.709Z,17.6574
2023-05-17T01:11:27.241Z,17.6640
2023-05-17T01:12:28.934Z,17.6673
2023-05-17T01:13:30.569Z,17.6681
2023-05-17T01:14:32.218Z,17.6790
2023-05-17T01:15:33.855Z,17.6539
2023-05-17T01:16:35.530Z,17.6615
2023-05-17T01:17:37.272Z,17.6858
2023-05-17T01:18:38.939Z,17.6736
2023-05-17T01:19:40.479Z,17.6079
2023-05-17T01:20:42.073Z,17.5859
2023-05-17T01:21:43.762Z,17.6065
2023-05-17T01:22:45.512Z,17.6003
2023-05-17T01:23:47.777Z,17.5987
2023-05-17T01:24:49.684Z,17.5555
2023-05-17T01:25:50.339Z,17.5804
2023-05-17T01:26:52.072Z,17.5601
2023-05-17T01:27:54.092Z,17.5420
2023-05-17T01:28:55.278Z,17.5436
2023-05-17T01:29:57.664Z,17.5732
2023-05-17T01:30:58.597Z,17.5656
2023-05-17T01:32:00.232Z,17.5594
2023-05-17T01:33:01.993Z,17.5576
2023-05-17T01:34:06.189Z,17.5469
2023-05-17T01:35:05.225Z,17.5656
2023-05-17T01:36:06.795Z,17.5978
2023-05-17T01:37:08.472Z,17.5672
2023-05-17T01:38:10.096Z,17.5578
2023-05-17T01:39:11.721Z,17.5469
2023-05-17T01:40:13.398Z,17.5625
2023-05-17T01:41:15.025Z,17.5272
2023-05-17T01:42:16.693Z,17.5021
2023-05-17T01:43:18.458Z,17.5479
2023-05-17T01:44:19.991Z,17.5598
2023-05-17T01:45:21.644Z,17.5631
2023-05-17T01:46:23.272Z,17.5711
2023-05-17T01:47:24.948Z,17.6022
2023-05-17T01:48:26.601Z,17.6451
2023-05-17T01:49:28.262Z,17.6083
2023-05-17T01:50:29.841Z,17.6239
2023-05-17T01:51:31.529Z,17.5851
2023-05-17T01:52:33.176Z,17.5812
2023-05-17T01:53:35.128Z,17.5884
2023-05-17T01:54:37.039Z,17.6020
2023-05-17T01:55:38.157Z,17.6375
2023-05-17T01:56:39.771Z,17.6408
2023-05-17T01:57:41.456Z,17.6237
2023-05-17T01:58:43.055Z,17.6418
2023-05-17T01:59:44.696Z,17.6451
2023-05-17T02:00:46.339Z,17.6209
2023-05-17T02:01:48.013Z,17.6174
2023-05-17T02:02:49.668Z,17.6367
2023-05-17T02:03:51.361Z,17.6098
2023-05-17T02:04:52.923Z,17.6186
2023-05-17T02:05:54.803Z,17.6206
2023-05-17T02:06:56.315Z,17.6334
2023-05-17T02:07:58.107Z,17.6428
2023-05-17T02:08:59.648Z,17.6385
2023-05-17T02:10:01.949Z,17.6200
2023-05-17T02:11:02.926Z,17.6344
2023-05-17T02:12:04.623Z,17.6344
2023-05-17T02:13:06.251Z,17.6449
2023-05-17T02:14:07.940Z,17.5880
2023-05-17T02:15:09.628Z,17.5629
2023-05-17T02:16:11.220Z,17.5662
2023-05-17T02:17:12.875Z,17.5724
2023-05-17T02:18:14.728Z,17.6032
2023-05-17T02:19:17.327Z,17.5633
2023-05-17T02:20:17.794Z,17.5769
2023-05-17T02:21:19.457Z,17.5929
2023-05-17T02:22:21.159Z,17.5664
2023-05-17T02:23:22.780Z,17.5449
2023-05-17T02:24:24.556Z,17.5272
2023-05-17T02:25:26.086Z,17.5438
2023-05-17T02:26:27.867Z,17.5338
2023-05-17T02:27:29.339Z,17.5071
2023-05-17T02:28:31.038Z,17.4672
2023-05-17T02:29:33.728Z,17.4629
2023-05-17T02:30:34.389Z,17.3140
2023-05-17T02:31:36.063Z,16.9260
2023-05-17T02:32:37.729Z,16.9642
2023-05-17T02:33:40.246Z,16.9724
2023-05-17T02:34:40.930Z,17.0153
2023-05-17T02:35:42.543Z,17.1186
2023-05-17T02:36:44.179Z,17.2618
2023-05-17T02:37:46.702Z,17.4306
2023-05-17T02:38:47.468Z,17.5350
2023-05-17T02:39:49.189Z,17.5925
2023-05-17T02:40:50.744Z,17.6130
2023-05-17T02:41:52.407Z,17.4719
2023-05-17T02:42:54.037Z,17.4352
2023-05-17T02:43:55.713Z,17.4296
2023-05-17T02:44:57.333Z,17.5759
2023-05-17T02:45:59.017Z,17.6597
2023-05-17T02:47:00.604Z,17.7006
2023-05-17T02:48:03.215Z,17.6630
2023-05-17T02:49:03.889Z,17.6206
2023-05-17T02:50:06.290Z,17.6022
2023-05-17T02:51:07.295Z,17.5128
2023-05-17T02:52:08.860Z,17.4914
2023-05-17T02:53:10.502Z,17.6856
2023-05-17T02:54:12.171Z,17.9366
2023-05-17T02:55:13.831Z,18.2018
2023-05-17T02:56:15.511Z,18.5117
2023-05-17T02:57:17.058Z,18.7329
2023-05-17T02:58:18.730Z,18.8823
2023-05-17T02:59:20.496Z,18.9462
2023-05-17T03:00:22.066Z,18.9905
2023-05-17T03:01:23.661Z,18.9961
2023-05-17T03:02:25.508Z,18.9829
2023-05-17T03:03:27.057Z,18.9903
2023-05-17T03:04:28.674Z,18.9807
2023-05-17T03:05:30.843Z,19.0117
2023-05-17T03:06:31.998Z,19.0291
2023-05-17T03:07:33.594Z,19.0507
2023-05-17T03:08:35.277Z,19.0698
2023-05-17T03:09:36.831Z,19.1353
2023-05-17T03:10:38.582Z,19.1345
2023-05-17T03:11:40.147Z,19.1592
2023-05-17T03:12:41.810Z,19.1816
2023-05-17T03:13:43.420Z,19.1840
2023-05-17T03:14:45.113Z,19.1924
2023-05-17T03:15:47.206Z,19.2869
2023-05-17T03:16:48.437Z,19.3892
2023-05-17T03:17:50.070Z,19.3500
2023-05-17T03:18:51.825Z,19.2348
2023-05-17T03:19:53.431Z,19.2871
2023-05-17T03:20:55.709Z,19.3214
2023-05-17T03:21:56.675Z,19.3582
2023-05-17T03:22:58.229Z,19.4936
2023-05-17T03:24:00.039Z,19.5137
2023-05-17T03:25:01.555Z,19.4102
2023-05-17T03:26:03.289Z,19.3884
2023-05-17T03:27:04.946Z,19.4439
2023-05-17T03:28:06.529Z,19.4718
2023-05-17T03:29:08.142Z,19.5829
2023-05-17T03:30:09.825Z,19.6201
2023-05-17T03:31:11.460Z,19.5745
2023-05-17T03:32:13.090Z,19.4178
2023-05-17T03:33:14.872Z,19.4734
2023-05-17T03:34:16.417Z,19.5396
2023-05-17T03:35:18.090Z,19.6522
2023-05-17T03:36:19.714Z,19.6766
2023-05-17T03:37:21.461Z,19.5614
2023-05-17T03:38:22.998Z,19.4334
2023-05-17T03:39:24.746Z,19.5322
2023-05-17T03:40:26.383Z,19.6039
2023-05-17T03:41:27.998Z,19.6708
2023-05-17T03:42:29.613Z,19.5829
2023-05-17T03:43:31.383Z,19.3329
2023-05-17T03:44:32.856Z,19.2091
2023-05-17T03:45:34.679Z,19.2002
2023-05-17T03:46:36.272Z,19.2576
2023-05-17T03:47:37.951Z,19.2826
2023-05-17T03:48:39.538Z,19.2403
2023-05-17T03:49:41.131Z,19.2056
2023-05-17T03:50:42.834Z,19.1549
2023-05-17T03:51:44.828Z,19.1179
2023-05-17T03:52:46.762Z,19.2128
2023-05-17T03:53:47.763Z,19.2142
2023-05-17T03:54:49.371Z,19.2037
2023-05-17T03:55:51.708Z,19.2263
2023-05-17T03:56:52.671Z,19.2327
2023-05-17T03:57:54.329Z,19.1468
2023-05-17T03:58:55.974Z,19.1746
2023-05-17T03:59:57.578Z,19.2087
2023-05-17T04:00:59.291Z,19.2750
2023-05-17T04:02:00.966Z,19.3077
2023-05-17T04:03:02.586Z,19.3346
2023-05-17T04:04:04.225Z,19.3249
2023-05-17T04:05:05.838Z,19.3496
2023-05-17T04:06:07.504Z,19.3030
2023-05-17T04:07:09.175Z,19.3549
2023-05-17T04:08:10.875Z,19.3765
2023-05-17T04:09:12.398Z,19.4020
2023-05-17T04:10:14.069Z,19.3212
2023-05-17T04:11:15.724Z,19.3159
2023-05-17T04:12:17.454Z,19.2639
2023-05-17T04:13:19.023Z,19.3529
2023-05-17T04:14:20.793Z,19.3974
2023-05-17T04:15:22.337Z,19.4256
2023-05-17T04:16:23.974Z,19.4589
2023-05-17T04:17:26.270Z,19.5127
2023-05-17T04:18:27.358Z,19.5349
2023-05-17T04:19:29.864Z,19.4685
2023-05-17T04:20:30.554Z,19.3987
2023-05-17T04:21:32.306Z,19.4652
2023-05-17T04:22:34.284Z,19.4987
2023-05-17T04:23:35.642Z,19.5008
2023-05-17T04:24:37.160Z,19.5581
2023-05-17T04:25:38.884Z,19.5862
2023-05-17T04:26:40.531Z,19.6277
2023-05-17T04:27:42.188Z,19.5256
2023-05-17T04:28:43.785Z,19.4734
2023-05-17T04:29:45.513Z,19.4856
2023-05-17T04:30:46.997Z,19.5193
2023-05-17T04:31:48.628Z,19.5102
2023-05-17T04:32:50.363Z,19.4876
2023-05-17T04:33:52.099Z,19.5180
2023-05-17T04:34:53.586Z,19.5158
2023-05-17T04:35:55.272Z,19.5480
2023-05-17T04:36:56.899Z,19.6148
2023-05-17T04:37:58.524Z,19.6478
2023-05-17T04:39:00.197Z,19.6704
2023-05-17T04:40:01.778Z,19.7027
2023-05-17T04:41:03.429Z,19.7269
2023-05-17T04:42:05.097Z,19.7423
2023-05-17T04:43:06.777Z,19.7575
2023-05-17T04:44:08.440Z,19.7964
2023-05-17T04:45:10.018Z,19.8062
2023-05-17T04:46:11.694Z,19.8613
2023-05-17T04:47:13.325Z,19.8841
2023-05-17T04:48:15.759Z,19.8884
2023-05-17T04:49:16.673Z,19.8003
2023-05-17T04:50:19.185Z,19.6156
2023-05-17T04:51:19.911Z,19.6772
2023-05-17T04:52:21.573Z,19.8148
2023-05-17T04:53:23.271Z,20.0504
2023-05-17T04:54:24.968Z,20.4200
2023-05-17T04:55:26.797Z,20.7482
2023-05-17T04:56:28.313Z,21.2431
2023-05-17T04:57:30.979Z,21.7962
2023-05-17T04:58:31.559Z,22.2438
2023-05-17T04:59:33.225Z,22.6733
2023-05-17T05:00:35.960Z,23.0353
2023-05-17T05:01:36.456Z,23.3662
2023-05-17T05:02:38.167Z,23.6946
2023-05-17T05:03:39.996Z,23.9212
2023-05-17T05:04:41.619Z,24.1786
2023-05-17T05:05:43.116Z,24.4493
2023-05-17T05:06:44.858Z,24.6679
2023-05-17T05:07:47.362Z,24.7182
2023-05-17T05:08:48.158Z,24.8328
2023-05-17T05:09:49.765Z,25.0945
2023-05-17T05:10:51.291Z,25.3340
2023-05-17T05:11:53.054Z,25.4026
2023-05-17T05:12:54.631Z,25.4244
2023-05-17T05:13:56.308Z,25.3934
2023-05-17T05:14:59.582Z,25.4950
2023-05-17T05:15:59.659Z,25.7228
2023-05-17T05:17:01.184Z,25.8266
2023-05-17T05:18:02.982Z,25.7738
2023-05-17T05:19:04.861Z,25.7013
2023-05-17T05:20:06.185Z,25.7103
2023-05-17T05:21:07.841Z,25.9282
2023-05-17T05:22:09.493Z,26.1758
2023-05-17T05:23:11.528Z,26.1643
2023-05-17T05:24:13.726Z,26.1164
2023-05-17T05:25:14.938Z,25.9946
2023-05-17T05:26:16.203Z,26.1318
2023-05-17T05:27:17.675Z,26.3126
2023-05-17T05:28:19.386Z,26.3871
2023-05-17T05:29:21.030Z,26.3093
2023-05-17T05:30:22.721Z,26.2314
2023-05-17T05:31:25.250Z,26.2711
2023-05-17T05:32:25.959Z,26.4011
2023-05-17T05:33:27.757Z,26.5810
2023-05-17T05:34:29.353Z,26.5886
2023-05-17T05:35:31.069Z,26.6106
2023-05-17T05:36:32.530Z,26.5537
2023-05-17T05:37:34.266Z,26.5455
2023-05-17T05:38:35.849Z,26.7088
2023-05-17T05:39:37.578Z,26.7213
2023-05-17T05:40:39.095Z,26.7396
2023-05-17T05:41:40.772Z,26.6642
2023-05-17T05:42:42.336Z,26.6971
2023-05-17T05:43:44.064Z,26.6648
2023-05-17T05:44:45.868Z,26.8232
2023-05-17T05:45:47.370Z,26.8575
2023-05-17T05:46:49.057Z,26.8768
2023-05-17T05:47:50.682Z,26.7710
2023-05-17T05:48:52.340Z,26.7098
2023-05-17T05:49:54.964Z,26.8004
2023-05-17T05:50:55.543Z,26.8286
2023-05-17T05:51:57.269Z,26.8134
2023-05-17T05:53:10.444Z,26.8251
2023-05-17T05:54:00.607Z,26.6866
2023-05-17T05:55:02.144Z,26.6223
2023-05-17T05:56:03.868Z,26.6981
2023-05-17T05:57:05.415Z,26.7538
2023-05-17T05:58:07.046Z,26.7558
2023-05-17T05:59:08.841Z,26.7462
2023-05-17T06:00:10.356Z,26.6669
2023-05-17T06:01:12.019Z,26.6020
2023-05-17T06:02:14.627Z,26.6685
2023-05-17T06:03:15.302Z,26.7014
2023-05-17T06:04:16.987Z,26.6883
2023-05-17T06:05:18.592Z,26.6889
2023-05-17T06:06:20.303Z,26.7298
2023-05-17T06:07:21.919Z,26.7269
2023-05-17T06:08:23.625Z,26.6706
2023-05-17T06:09:25.154Z,26.6640
2023-05-17T06:10:27.011Z,26.6437
2023-05-17T06:11:28.571Z,26.6248
2023-05-17T06:12:30.097Z,26.6930
2023-05-17T06:13:31.874Z,26.7111
2023-05-17T06:14:33.424Z,26.8082
2023-05-17T06:15:35.105Z,26.9000
2023-05-17T06:16:36.711Z,27.0175
2023-05-17T06:17:38.383Z,27.0576
2023-05-17T06:18:41.028Z,27.0999
2023-05-17T06:19:41.766Z,27.0810
2023-05-17T06:20:44.317Z,27.0966
2023-05-17T06:21:45.852Z,27.1796
2023-05-17T06:22:46.694Z,27.1685
2023-05-17T06:23:48.334Z,27.0884
2023-05-17T06:24:52.188Z,27.0870
2023-05-17T06:25:56.236Z,27.1021
2023-05-17T06:26:57.901Z,27.2353
2023-05-17T06:27:59.498Z,27.3425
2023-05-17T06:29:01.183Z,27.2784
2023-05-17T06:30:06.373Z,27.2644
2023-05-17T06:31:04.482Z,27.2889
2023-05-17T06:32:06.216Z,27.4503
2023-05-17T06:33:07.834Z,27.5822
2023-05-17T06:34:09.523Z,27.5224
2023-05-17T06:35:11.114Z,27.5892
2023-05-17T06:36:12.708Z,27.5009
2023-05-17T06:37:14.382Z,27.4066
2023-05-17T06:38:16.002Z,27.4900
2023-05-17T06:39:17.630Z,27.4282
2023-05-17T06:40:19.378Z,27.4822
2023-05-17T06:41:21.842Z,27.4834
2023-05-17T06:42:22.700Z,27.4409
2023-05-17T06:43:24.270Z,27.5302
2023-05-17T06:44:25.913Z,27.7237
2023-05-17T06:45:27.526Z,27.6311
2023-05-17T06:46:29.271Z,27.6007
2023-05-17T06:47:30.879Z,27.6021
2023-05-17T06:48:32.712Z,27.6465
2023-05-17T06:49:34.117Z,27.8640
2023-05-17T06:50:35.842Z,27.7414
2023-05-17T06:51:38.344Z,27.7482
2023-05-17T06:52:39.852Z,27.7375
2023-05-17T06:53:40.794Z,27.7874
2023-05-17T06:54:42.365Z,27.9694
2023-05-17T06:55:43.995Z,27.9867
2023-05-17T06:56:45.678Z,27.7669
2023-05-17T06:57:47.307Z,27.2125
2023-05-17T06:58:48.914Z,26.9272
2023-05-17T06:59:50.598Z,26.7189
2023-05-17T07:00:52.360Z,26.4958
2023-05-17T07:01:54.106Z,26.0718
2023-05-17T07:02:55.562Z,25.7446
2023-05-17T07:03:57.285Z,25.5760
2023-05-17T07:04:58.935Z,25.4975
2023-05-17T07:06:00.541Z,25.4663
2023-05-17T07:07:02.174Z,25.0811
2023-05-17T07:08:03.777Z,24.8679
2023-05-17T07:09:05.488Z,24.6728
2023-05-17T07:10:07.107Z,24.6144
2023-05-17T07:11:09.491Z,24.6500
2023-05-17T07:12:10.865Z,24.6504
2023-05-17T07:13:11.997Z,24.4343
2023-05-17T07:14:13.823Z,24.3063
2023-05-17T07:15:15.336Z,24.1763
2023-05-17T07:16:16.943Z,24.1712
2023-05-17T07:17:18.576Z,24.2739
2023-05-17T07:18:21.087Z,24.2143
2023-05-17T07:19:21.961Z,24.1134
2023-05-17T07:20:23.567Z,23.9779
2023-05-17T07:21:25.395Z,23.8937
2023-05-17T07:22:27.295Z,23.9538
2023-05-17T07:23:28.483Z,24.0736
2023-05-17T07:24:30.073Z,23.9707
2023-05-17T07:25:31.809Z,23.8105
2023-05-17T07:26:33.840Z,23.7336
2023-05-17T07:27:35.127Z,23.7201
2023-05-17T07:28:36.693Z,23.8333
2023-05-17T07:29:38.365Z,23.9791
2023-05-17T07:30:39.950Z,23.8602
2023-05-17T07:31:41.982Z,23.7478
2023-05-17T07:32:43.309Z,23.6535
2023-05-17T07:33:45.088Z,23.6560
2023-05-17T07:34:46.589Z,23.7604
2023-05-17T07:35:48.261Z,23.9099
2023-05-17T07:36:49.884Z,23.8466
2023-05-17T07:37:51.589Z,23.7367
2023-05-17T07:38:53.215Z,23.6198
2023-05-17T07:39:54.851Z,23.6264
2023-05-17T07:40:56.519Z,23.7129
2023-05-17T07:41:58.149Z,23.8183
2023-05-17T07:42:59.770Z,23.6763
2023-05-17T07:44:01.492Z,23.5496
2023-05-17T07:45:03.070Z,23.4315
2023-05-17T07:46:04.743Z,23.4294
2023-05-17T07:47:06.451Z,23.5321
2023-05-17T07:48:08.084Z,23.6416
2023-05-17T07:49:09.730Z,23.5093
2023-05-17T07:50:11.869Z,23.4052
2023-05-17T07:51:12.908Z,23.3555
2023-05-17T07:52:14.715Z,23.4058
2023-05-17T07:53:16.173Z,23.5582
2023-05-17T07:54:17.866Z,23.7184
2023-05-17T07:55:20.316Z,23.6605
2023-05-17T07:56:21.167Z,23.5860
2023-05-17T07:57:22.815Z,23.5104
2023-05-17T07:58:24.419Z,23.5408
2023-05-17T07:59:26.056Z,23.6815
2023-05-17T08:00:27.760Z,23.7737
2023-05-17T08:01:29.352Z,23.6229
2023-05-17T08:02:31.662Z,23.5494
2023-05-17T08:03:33.411Z,23.4206
2023-05-17T08:04:34.384Z,23.4335
2023-05-17T08:05:36.181Z,23.5671
2023-05-17T08:06:37.622Z,23.6289
2023-05-17T08:07:39.348Z,23.5241
2023-05-17T08:08:40.955Z,23.4163
2023-05-17T08:09:42.609Z,23.3746
2023-05-17T08:10:44.260Z,23.4116
2023-05-17T08:11:45.927Z,23.5689
2023-05-17T08:12:47.554Z,23.6346
2023-05-17T08:13:49.128Z,23.5907
2023-05-17T08:14:51.040Z,23.5167
2023-05-17T08:15:55.980Z,23.4678
2023-05-17T08:16:54.145Z,23.5537
2023-05-17T08:17:55.939Z,23.7187
2023-05-17T08:18:58.380Z,23.7499
2023-05-17T08:19:59.168Z,23.7032
2023-05-17T08:21:00.657Z,23.5745
2023-05-17T08:22:02.621Z,23.4941
2023-05-17T08:23:04.022Z,23.5537
2023-05-17T08:24:05.660Z,23.6893
2023-05-17T08:25:07.284Z,23.6127
2023-05-17T08:26:09.006Z,23.5465
2023-05-17T08:27:10.562Z,23.4422
2023-05-17T08:28:12.234Z,23.4274
2023-05-17T08:29:13.865Z,23.5410
2023-05-17T08:30:27.833Z,23.7133
2023-05-17T08:31:17.132Z,23.6402
2023-05-17T08:32:18.767Z,23.5759
2023-05-17T08:33:20.568Z,23.4664
2023-05-17T08:34:22.136Z,23.4487
2023-05-17T08:35:24.494Z,23.5736
2023-05-17T08:36:25.342Z,23.7230
2023-05-17T08:37:26.981Z,23.6176
2023-05-17T08:38:28.704Z,23.5642
2023-05-17T08:39:30.308Z,23.4510
2023-05-17T08:40:32.481Z,23.4535
2023-05-17T08:41:33.674Z,23.5886
2023-05-17T08:42:35.184Z,23.7388
2023-05-17T08:43:36.829Z,23.6492
2023-05-17T08:44:38.471Z,23.5753
2023-05-17T08:45:40.041Z,23.5067
2023-05-17T08:46:41.734Z,23.5551
2023-05-17T08:47:43.424Z,23.7369
2023-05-17T08:48:45.092Z,23.8969
2023-05-17T08:49:48.172Z,23.8271
2023-05-17T08:50:48.367Z,23.7920
2023-05-17T08:51:50.011Z,23.7121
2023-05-17T08:52:51.593Z,23.7293
2023-05-17T08:53:53.252Z,23.8647
2023-05-17T08:54:54.903Z,23.9491
2023-05-17T08:55:57.521Z,23.8920
2023-05-17T08:56:58.268Z,23.7801
2023-05-17T08:57:59.799Z,23.7291
2023-05-17T08:59:01.480Z,23.8257
2023-05-17T09:00:03.135Z,24.0083
2023-05-17T09:01:05.877Z,24.0584
2023-05-17T09:02:07.533Z,23.9925
2023-05-17T09:03:08.330Z,23.9237
2023-05-17T09:04:09.924Z,23.8910
2023-05-17T09:05:11.567Z,23.9818
2023-05-17T09:06:13.156Z,24.1915
2023-05-17T09:07:15.271Z,24.1989
2023-05-17T09:08:16.408Z,24.1500
2023-05-17T09:09:18.088Z,23.9984
2023-05-17T09:10:19.643Z,23.9440
2023-05-17T09:11:21.534Z,24.0290
2023-05-17T09:12:25.368Z,24.1991
2023-05-17T09:13:24.951Z,24.2219
2023-05-17T09:14:26.641Z,24.1558
2023-05-17T09:15:28.145Z,24.0278
2023-05-17T09:16:30.514Z,23.9627
2023-05-17T09:17:31.372Z,24.0541
2023-05-17T09:18:33.162Z,24.2166
2023-05-17T09:19:34.671Z,24.2112
2023-05-17T09:20:36.148Z,24.1615
2023-05-17T09:21:37.815Z,24.0726
2023-05-17T09:22:39.444Z,24.0171
2023-05-17T09:23:43.523Z,24.1219
2023-05-17T09:24:43.727Z,24.3030
2023-05-17T09:25:44.373Z,24.1664
2023-05-17T09:26:46.992Z,24.0432
2023-05-17T09:27:47.732Z,23.9561
2023-05-17T09:28:49.258Z,23.9292
2023-05-17T09:29:51.051Z,24.0496
2023-05-17T09:30:52.578Z,24.2176
2023-05-17T09:31:54.249Z,24.1527
2023-05-17T09:32:55.986Z,24.0917
2023-05-17T09:33:57.553Z,23.9592
2023-05-17T09:34:59.223Z,23.9269
2023-05-17T09:36:00.881Z,24.0204
2023-05-17T09:37:02.462Z,24.1903
2023-05-17T09:38:04.153Z,24.0911
2023-05-17T09:39:06.707Z,23.9452
2023-05-17T09:40:08.467Z,23.8898
2023-05-17T09:41:08.978Z,23.8530
2023-05-17T09:42:10.708Z,23.9806
2023-05-17T09:43:12.239Z,24.2077
2023-05-17T09:44:13.987Z,24.3018
2023-05-17T09:45:15.651Z,24.2299
2023-05-17T09:46:17.247Z,24.1718
2023-05-17T09:47:18.925Z,24.1190
2023-05-17T09:48:20.673Z,24.2295
2023-05-17T09:49:22.203Z,24.4318
2023-05-17T09:50:26.164Z,24.4581
2023-05-17T09:51:25.471Z,24.3365
2023-05-17T09:52:27.161Z,24.1808
2023-05-17T09:53:28.696Z,24.0954
2023-05-17T09:54:30.414Z,24.1459
2023-05-17T09:55:32.166Z,24.2805
2023-05-17T09:56:33.659Z,24.2909
2023-05-17T09:57:35.398Z,24.1022
2023-05-17T09:58:36.958Z,24.0247
2023-05-17T09:59:38.677Z,24.0099
2023-05-17T10:00:40.276Z,24.0668
2023-05-17T10:01:42.958Z,24.2176
2023-05-17T10:02:43.719Z,24.2782
2023-05-17T10:03:45.219Z,24.1268
2023-05-17T10:04:46.864Z,24.0529
2023-05-17T10:05:48.561Z,24.0192
2023-05-17T10:06:51.991Z,24.0830
2023-05-17T10:07:51.990Z,24.2823
2023-05-17T10:08:53.415Z,24.5955
2023-05-17T10:09:55.463Z,24.7615
2023-05-17T10:10:56.795Z,24.9610
2023-05-17T10:11:58.411Z,25.1107
2023-05-17T10:13:00.050Z,25.1752
2023-05-17T10:14:01.644Z,25.3017
2023-05-17T10:15:03.395Z,25.1518
2023-05-17T10:16:05.991Z,24.9620
2023-05-17T10:17:06.654Z,24.8077
2023-05-17T10:18:08.359Z,24.7254
2023-05-17T10:19:10.059Z,24.8160
2023-05-17T10:20:12.456Z,24.9371
2023-05-17T10:21:13.212Z,24.7761
2023-05-17T10:22:22.671Z,24.6806
2023-05-17T10:23:16.583Z,24.6183
2023-05-17T10:24:18.209Z,24.6414
2023-05-17T10:25:19.880Z,24.7886
2023-05-17T10:26:21.500Z,24.7554
2023-05-17T10:27:23.097Z,24.6031
2023-05-17T10:28:24.780Z,24.5686
2023-05-17T10:29:26.380Z,24.5052
2023-05-17T10:30:28.094Z,24.6262
2023-05-17T10:31:29.775Z,24.8355
2023-05-17T10:32:31.372Z,24.8887
2023-05-17T10:33:33.193Z,24.9458
2023-05-17T10:34:34.658Z,25.0166
2023-05-17T10:35:36.337Z,25.1411
2023-05-17T10:36:38.023Z,25.5162
2023-05-17T10:37:39.727Z,26.0036
2023-05-17T10:38:43.073Z,26.1624
2023-05-17T10:39:42.766Z,26.3978
2023-05-17T10:40:44.881Z,26.4644
2023-05-17T10:41:46.236Z,26.3882
2023-05-17T10:42:48.029Z,26.3346
2023-05-17T10:43:49.530Z,26.2532
2023-05-17T10:44:51.327Z,25.9671
2023-05-17T10:45:52.884Z,25.7565
2023-05-17T10:46:54.453Z,25.5476
2023-05-17T10:47:58.179Z,25.5098
2023-05-17T10:48:57.876Z,25.5953
2023-05-17T10:49:59.466Z,25.5141
2023-05-17T10:51:02.074Z,25.3473
2023-05-17T10:52:03.113Z,25.0807
2023-05-17T10:53:04.333Z,24.9238
2023-05-17T10:54:05.975Z,24.9647
2023-05-17T10:55:07.677Z,25.0690
2023-05-17T10:56:09.328Z,24.9665
2023-05-17T10:57:10.979Z,24.8829
2023-05-17T10:58:12.598Z,24.8006
2023-05-17T10:59:14.226Z,24.8147
2023-05-17T11:00:15.960Z,25.0481
2023-05-17T11:01:17.555Z,25.1789
2023-05-17T11:02:19.146Z,25.1345
2023-05-17T11:03:21.535Z,25.1165
2023-05-17T11:04:22.496Z,25.0620
2023-05-17T11:05:24.184Z,25.1109
2023-05-17T11:06:26.102Z,25.3213
2023-05-17T11:07:27.452Z,25.2703
2023-05-17T11:08:29.029Z,25.1575
2023-05-17T11:09:30.729Z,25.0187
2023-05-17T11:10:32.259Z,24.8624
2023-05-17T11:11:34.978Z,24.9067
2023-05-17T11:12:37.367Z,25.0807
2023-05-17T11:13:37.141Z,24.9291
2023-05-17T11:14:38.841Z,24.9242
2023-05-17T11:15:40.532Z,24.8572
2023-05-17T11:16:42.198Z,24.8856
2023-05-17T11:17:43.833Z,25.1043
2023-05-17T11:18:45.548Z,25.2703
2023-05-17T11:19:47.186Z,25.2399
2023-05-17T11:20:48.861Z,25.2142
2023-05-17T11:21:50.425Z,25.2034
2023-05-17T11:22:51.984Z,25.2598
2023-05-17T11:23:53.638Z,25.4371
2023-05-17T11:24:55.284Z,25.4737
2023-05-17T11:26:00.403Z,25.2948
2023-05-17T11:26:58.616Z,25.3169
2023-05-17T11:28:00.235Z,25.3116
2023-05-17T11:29:01.862Z,25.3395
2023-05-17T11:30:03.473Z,25.5082
2023-05-17T11:31:05.219Z,25.5201
2023-05-17T11:32:06.851Z,25.4170
2023-05-17T11:33:20.612Z,25.3032
2023-05-17T11:34:10.113Z,25.2465
2023-05-17T11:35:11.745Z,25.3605
2023-05-17T11:36:13.383Z,25.5043
2023-05-17T11:37:16.004Z,25.4020
2023-05-17T11:38:16.695Z,25.3747
2023-05-17T11:39:18.364Z,25.2773
2023-05-17T11:40:19.994Z,25.2134
2023-05-17T11:42:23.330Z,25.2674
2023-05-17T11:43:24.989Z,25.0643
2023-05-17T11:44:26.609Z,24.9166
2023-05-17T11:45:28.577Z,24.8178
2023-05-17T11:46:29.873Z,24.8523
2023-05-17T11:47:31.607Z,25.0429
2023-05-17T11:48:33.188Z,25.0232
2023-05-17T11:49:36.331Z,24.9109
2023-05-17T11:50:36.395Z,24.8192
2023-05-17T11:51:38.109Z,24.8256
2023-05-17T11:52:39.781Z,24.9499
2023-05-17T11:53:41.308Z,25.1543
2023-05-17T11:54:43.067Z,25.0820
2023-05-17T11:55:44.690Z,24.9339
2023-05-17T11:56:46.299Z,24.9207
2023-05-17T11:57:47.909Z,24.9565
2023-05-17T11:58:49.554Z,25.1122
2023-05-17T11:59:51.238Z,25.2804
2023-05-17T12:00:52.872Z,25.0799
2023-05-17T12:01:54.479Z,24.9404
2023-05-17T12:02:56.251Z,24.8572
2023-05-17T12:03:57.802Z,24.8496
2023-05-17T12:04:59.549Z,25.0070
2023-05-17T12:06:01.084Z,25.0939
2023-05-17T12:07:02.744Z,24.9143
2023-05-17T12:08:04.383Z,24.8657
2023-05-17T12:09:07.075Z,24.8141
2023-05-17T12:10:08.455Z,24.8464
2023-05-17T12:11:09.296Z,25.0550
2023-05-17T12:12:10.925Z,24.9367
2023-05-17T12:13:13.522Z,24.9076
2023-05-17T12:14:14.211Z,24.8811
2023-05-17T12:15:15.871Z,24.8909
2023-05-17T12:16:18.408Z,25.0246
2023-05-17T12:17:19.256Z,25.2391
2023-05-17T12:18:20.988Z,25.1489
2023-05-17T12:19:22.563Z,25.0937
2023-05-17T12:20:24.194Z,25.0353
2023-05-17T12:21:25.701Z,25.0904
2023-05-17T12:22:27.340Z,25.2598
2023-05-17T12:23:29.057Z,25.5014
2023-05-17T12:24:30.653Z,25.4564
2023-05-17T12:25:32.339Z,25.4365
2023-05-17T12:26:33.930Z,25.4632